M I D A S
Marine Information and Data Acquisition System
Tripno 317 of the Zeeleeuw from 2002-04-11 06:35:16 to 2002-04-11 14:34:41
Back to CruiseResearch ActivitiesStationsMapUnderway DataData graphs

EquipmentUnitsComment
TimeDGPSUTC
LatitudeDGPSDM.mWGS84
LongitudeDGPSDM.mWGS84
TemperatureSBE03/SBE38deg celciusITS90
ConductivitySBE21S/mITS90
SalinitySBE21 Practical Salinity Units
ChlorophylAChelsea fluorimeterg/lCalibrated in Aceton
Missing or incorrect values are displayed as -999
Sea surface data collected by the RV Zeeleeuw from 2002-04-11 06:35:16 to 2002-04-11 14:34:41
Time Latitude Longitude Temperature Conductivity Salinity ChlorophylA
2002-04-11 06:36:17 51°13.692 2°55.835 16.927242 0.015952 0.089458  
2002-04-11 06:37:12 51°13.695 2°55.77 16.926565 0.015952 0.089499  
2002-04-11 06:38:12 51°13.703 2°55.764 16.950076 0.015952 0.089539  
2002-04-11 06:39:13 51°13.703 2°55.746 16.831721 0.015952 0.089559  
2002-04-11 06:40:13 51°13.757 2°55.701 16.950287 0.015952 0.089577  
2002-04-11 06:41:13 51°13.836 2°55.628 16.953247 0.015853 0.089068  
2002-04-11 06:42:13 51°13.932 2°55.552 17.027867 0.015853 0.088921  
2002-04-11 06:43:14 51°14.031 2°55.479 16.969225 0.015853 0.089119  
2002-04-11 06:44:13 51°14.131 2°55.408 16.95777 0.015853 0.089169  
2002-04-11 06:45:14 51°14.253 2°55.276 16.860302 0.015853 0.089209  
2002-04-11 06:46:14 51°14.35 2°55.082 16.920305 0.015853 0.089241  
2002-04-11 06:47:13 51°14.483 2°54.909 16.994581 0.015853 0.089284  
2002-04-11 06:48:14 51°14.653 2°54.727 17.133236 0.015853 0.08931  
2002-04-11 06:49:13 51°14.825 2°54.552 9.232108 0.015952 0.08973  
2002-04-11 06:50:14 51°15.005 2°54.367 9.253841 3.298749 29.853662  
2002-04-11 06:51:13 51°15.171 2°54.182 9.163732 3.318381 30.104833  
2002-04-11 06:52:14 51°15.348 2°53.982 9.232915 3.290338 29.882552  
2002-04-11 06:53:13 51°15.523 2°53.784 9.136266 3.276316 29.727428  
2002-04-11 06:54:13 51°15.703 2°53.577 9.18278 3.267804 29.727352  
2002-04-11 06:55:13 51°15.881 2°53.368 9.144868 3.261695 29.694811  
2002-04-11 06:56:14 51°16.063 2°53.167 9.146484 3.258891 29.686111  
2002-04-11 06:57:13 51°16.244 2°52.995 9.178363 3.258391 29.721619  
2002-04-11 06:58:14 51°16.43 2°52.809 9.136884 3.258291 29.71384  
2002-04-11 06:59:13 51°16.614 2°52.653 9.159931 3.259293 29.746983  
2002-04-11 07:00:14 51°16.806 2°52.519 9.155465 3.259793 29.744586  
2002-04-11 07:01:13 51°16.996 2°52.41 9.162069 3.262097 29.762434  
2002-04-11 07:02:13 51°17.19 2°52.297 9.214926 3.267004 29.826282  
2002-04-11 07:03:13 51°17.39 2°52.259 9.1862 3.266804 29.822218  
2002-04-11 07:04:13 51°17.589 2°52.247 9.19584 3.270109 29.848146  
2002-04-11 07:05:14 51°17.792 2°52.233 9.207805 3.273514 29.8778  
2002-04-11 07:06:13 51°17.989 2°52.219 9.211176 3.276519 29.898634  
2002-04-11 07:07:14 51°18.171 2°52.317 9.206381 3.275918 29.892562  
2002-04-11 07:08:14 51°18.272 2°52.584 9.203057 3.279924 29.935774  
2002-04-11 07:09:13 51°18.378 2°52.84 9.23581 3.284932 29.993911  
2002-04-11 07:10:13 51°18.483 2°53.103 9.192516 3.289739 30.030901  
2002-04-11 07:11:13 51°18.588 2°53.367 9.187482 3.294346 30.10354  
2002-04-11 07:12:13 51°18.694 2°53.632 9.180738 3.295448 30.118124  
2002-04-11 07:13:13 51°18.759 2°53.93 9.176226 3.29665 30.130978  
2002-04-11 07:14:13 51°18.814 2°54.235 9.175181 3.297551 30.149041  
2002-04-11 07:15:13 51°18.876 2°54.536 9.166155 3.297652 30.156245  
2002-04-11 07:16:14 51°18.94 2°54.844 9.222758 3.29665 30.150914  
2002-04-11 07:17:14 51°19.001 2°55.148 9.129041 3.295649 30.140767  
2002-04-11 07:18:13 51°19.062 2°55.445 9.113686 3.297151 30.182157  
2002-04-11 07:19:14 51°19.126 2°55.753 9.101561 3.296851 30.194281  
2002-04-11 07:20:13 51°19.188 2°56.05 9.10546 3.296851 30.198422  
2002-04-11 07:21:13 51°19.252 2°56.35 9.113781 3.294848 30.184997  
2002-04-11 07:22:14 51°19.318 2°56.656 9.113496 3.290541 30.142675  
2002-04-11 07:23:13 51°19.382 2°56.952 9.110073 3.286535 30.100654  
2002-04-11 07:24:14 51°19.449 2°57.258 9.137312 3.282529 30.059331  
2002-04-11 07:25:14 51°19.515 2°57.559 9.172948 3.277121 30.003115  
2002-04-11 07:26:14 51°19.58 2°57.862 9.100705 3.26991 29.945757  
2002-04-11 07:27:14 51°19.647 2°58.163 9.115968 3.261597 29.86079  
2002-04-11 07:28:14 51°19.713 2°58.465 9.125571 3.257992 29.815381  
2002-04-11 07:29:13 51°19.779 2°58.762 9.131466 3.257791 29.805176  
2002-04-11 07:30:13 51°19.847 2°59.06 9.136314 3.261096 29.833201  
2002-04-11 07:31:14 51°19.914 2°59.364 9.141874 3.265002 29.863898  
2002-04-11 07:32:13 51°19.982 2°59.656 9.145486 3.269609 29.909195  
2002-04-11 07:33:14 51°20.052 2°59.959 9.150476 3.272714 29.939279  
2002-04-11 07:34:14 51°20.118 3°0.258 9.152994 3.274717 29.956151  
2002-04-11 07:35:13 51°20.186 3°0.551 9.154895 3.275017 29.957142  
2002-04-11 07:36:14 51°20.252 3°0.853 9.156368 3.273915 29.941881  
2002-04-11 07:37:13 51°20.326 3°1.141 9.152044 3.273014 29.930702  
2002-04-11 07:38:14 51°20.405 3°1.44 9.186627 3.269809 29.898249  
2002-04-11 07:39:14 51°20.48 3°1.732 9.1433 3.265202 29.855697  
2002-04-11 07:40:14 51°20.559 3°2.02 9.146484 3.261196 29.815142  
2002-04-11 07:41:14 51°20.638 3°2.312 9.148765 3.261296 29.818879  
2002-04-11 07:42:14 51°20.716 3°2.604 9.147054 3.262699 29.832392  
2002-04-11 07:43:13 51°20.795 3°2.889 9.151331 3.264902 29.8547  
2002-04-11 07:44:13 51°20.873 3°3.18 9.156463 3.267806 29.886839  
2002-04-11 07:45:14 51°20.954 3°3.473 9.156178 3.271211 29.915862  
2002-04-11 07:46:14 51°21.034 3°3.764 9.156225 3.272013 29.922609  
2002-04-11 07:47:14 51°21.115 3°4.055 9.154942 3.269008 29.889455  
2002-04-11 07:48:14 51°21.197 3°4.345 9.157746 3.265102 29.854683  
2002-04-11 07:49:14 51°21.277 3°4.638 9.162449 3.261897 29.822238  
2002-04-11 07:50:13 51°21.358 3°4.925 9.1672 3.261196 29.810377  
2002-04-11 07:51:14 51°21.439 3°5.224 9.170335 3.260996 29.805628  
2002-04-11 07:52:14 51°21.52 3°5.517 9.206523 3.261396 29.80628  
2002-04-11 07:53:14 51°21.601 3°5.811 9.166202 3.261897 29.810667  
2002-04-11 07:54:14 51°21.683 3°6.104 9.165585 3.262698 29.822178  
2002-04-11 07:55:14 51°21.764 3°6.398 9.161784 3.264902 29.844478  
2002-04-11 07:56:14 51°21.85 3°6.69 9.149668 3.266504 29.863424  
2002-04-11 07:57:13 51°21.934 3°6.978 9.145866 3.269509 29.895207  
2002-04-11 07:58:14 51°22.02 3°7.281 9.136646 3.271712 29.923666  
2002-04-11 07:59:14 51°22.107 3°7.577 9.146769 3.269609 29.911245  
2002-04-11 08:00:14 51°22.193 3°7.868 9.1433 3.268407 29.89907  
2002-04-11 08:01:13 51°22.278 3°8.156 9.185677 3.265202 29.865244  
2002-04-11 08:02:14 51°22.369 3°8.454 9.137692 3.255588 29.766532  
2002-04-11 08:03:14 51°22.457 3°8.749 9.178173 3.249679 29.708762  
2002-04-11 08:04:14 51°22.544 3°9.044 9.133414 3.241667 29.630397  
2002-04-11 08:05:14 51°22.621 3°9.311 9.166582 3.241167 29.622624  
2002-04-11 08:06:14 51°22.648 3°9.438 9.124098 3.245173 29.673999  
2002-04-11 08:07:14 51°22.658 3°9.5 9.129136 3.245974 29.687536  
2002-04-11 08:08:13 51°22.684 3°9.503 9.18278 3.250781 29.736893  
2002-04-11 08:09:14 51°22.695 3°9.474 9.202013 3.253285 29.758169  
2002-04-11 08:10:14 51°22.699 3°9.447 9.121958 3.255388 29.78083  
2002-04-11 08:11:13 51°22.698 3°9.421 9.123575 3.25699 29.798422  
2002-04-11 08:12:13 51°22.702 3°9.397 9.121436 3.258693 29.818395  
2002-04-11 08:13:14 51°22.72 3°9.385 9.128043 3.259795 29.830238  
2002-04-11 08:14:14 51°22.739 3°9.402 9.123717 3.260896 29.83799  
2002-04-11 08:15:13 51°22.731 3°9.438 9.125334 3.261297 29.843413  
2002-04-11 08:16:14 51°22.709 3°9.46 9.127283 3.261798 29.849169  
2002-04-11 08:17:14 51°22.693 3°9.471 9.120722 3.260796 29.839022  
2002-04-11 08:18:14 51°22.68 3°9.468 9.120532 3.260395 29.838373  
2002-04-11 08:19:14 51°22.666 3°9.453 9.130753 3.259995 29.834313  
2002-04-11 08:20:14 51°22.65 3°9.436 9.127853 3.259895 29.831253  
2002-04-11 08:21:13 51°22.635 3°9.428 9.144773 3.260395 29.832917  
2002-04-11 08:22:14 51°22.624 3°9.429 9.131418 3.261096 29.833883  
2002-04-11 08:23:14 51°22.625 3°9.426 9.167295 3.261497 29.835214  
2002-04-11 08:24:14 51°22.637 3°9.413 9.125001 3.261998 29.84847  
2002-04-11 08:25:14 51°22.648 3°9.407 9.204197 3.261998 29.849834  
2002-04-11 08:26:14 51°22.655 3°9.408 9.165727 3.261597 29.844411  
2002-04-11 08:27:14 51°22.655 3°9.418 9.126475 3.261297 29.842731  
2002-04-11 08:28:14 51°22.647 3°9.436 9.12714 3.261096 29.842748  
2002-04-11 08:29:14 51°22.635 3°9.451 9.125001 3.260596 29.834946  
2002-04-11 08:30:14 51°22.631 3°9.46 9.126142 3.260295 29.833266  
2002-04-11 08:31:14 51°22.635 3°9.458 9.127425 3.259895 29.828526  
2002-04-11 08:32:14 51°22.645 3°9.448 9.126902 3.259694 29.82786  
2002-04-11 08:33:14 51°22.658 3°9.439 9.125429 3.259394 29.824134  
2002-04-11 08:34:14 51°22.67 3°9.433 9.124906 3.259294 29.823119  
2002-04-11 08:35:14 51°22.678 3°9.43 9.12771 3.258292 29.817744  
2002-04-11 08:36:14 51°22.687 3°9.429 9.125334 3.25699 29.804553  
2002-04-11 08:37:13 51°22.692 3°9.429 9.132654 3.255989 29.795087  
2002-04-11 08:38:13 51°22.694 3°9.428 9.173186 3.254587 29.776798  
2002-04-11 08:39:14 51°22.692 3°9.427 9.134413 3.252684 29.754804  
2002-04-11 08:40:14 51°22.686 3°9.428 9.13869 3.251482 29.741273  
2002-04-11 08:41:14 51°22.677 3°9.429 9.149193 3.249579 29.720646  
2002-04-11 08:42:14 51°22.664 3°9.431 9.135648 3.247977 29.698315  
2002-04-11 08:43:14 51°22.654 3°9.432 9.141161 3.246274 29.685151  
2002-04-11 08:44:13 51°22.738 3°9.402 9.149098 3.246074 29.682445  
2002-04-11 08:45:14 51°22.887 3°9.16 9.164872 3.245473 29.672295  
2002-04-11 08:46:14 51°23.048 3°8.917 9.142967 3.244972 29.657741  
2002-04-11 08:47:14 51°23.206 3°8.671 9.251896 3.238363 29.591553  
2002-04-11 08:48:14 51°23.338 3°8.381 9.154467 3.230651 29.50481  
2002-04-11 08:49:14 51°23.49 3°8.117 9.222236 3.223641 29.433961  
2002-04-11 08:50:14 51°23.652 3°7.875 9.139165 3.216431 29.361113  
2002-04-11 08:51:13 51°23.825 3°7.655 9.148242 3.212625 29.336069  
2002-04-11 08:52:13 51°23.971 3°7.379 9.151806 3.213727 29.34519  
2002-04-11 08:53:14 51°24.083 3°7.106 9.11768 3.213527 29.339816  
2002-04-11 08:54:14 51°24.15 3°6.986 9.124573 3.213627 29.350881  
2002-04-11 08:55:14 51°24.196 3°6.909 9.121673 3.213126 29.359905  
2002-04-11 08:56:14 51°24.233 3°6.868 9.027048 3.213427 29.36093  
2002-04-11 08:57:14 51°24.262 3°6.885 9.030666 3.27622 30.04824  
2002-04-11 08:58:13 51°24.259 3°6.884 9.018859 3.316182 30.470568  
2002-04-11 08:59:14 51°24.26 3°6.899 9.019097 3.342525 30.753021  
2002-04-11 09:00:14 51°24.266 3°6.921 9.089481 3.346431 30.794274  
2002-04-11 09:01:14 51°24.275 3°6.945 9.083678 3.360855 30.928678  
2002-04-11 09:02:13 51°24.284 3°6.961 9.047374 3.363159 30.947927  
2002-04-11 09:03:14 51°24.29 3°6.97 9.045803 3.367566 30.990764  
2002-04-11 09:04:14 51°24.296 3°6.974 9.048183 3.374277 31.059965  
2002-04-11 09:05:14 51°24.301 3°6.975 9.040139 3.382391 31.141367  
2002-04-11 09:06:13 51°24.302 3°6.977 9.04033 3.385296 31.173887  
2002-04-11 09:07:14 51°24.302 3°6.982 9.044423 3.391306 31.237422  
2002-04-11 09:08:13 51°24.299 3°6.987 9.042186 3.394111 31.263926  
2002-04-11 09:09:14 51°24.292 3°6.996 9.038759 3.400021 31.325751  
2002-04-11 09:10:14 51°24.287 3°7.005 9.040901 3.410739 31.437478  
2002-04-11 09:11:14 51°24.283 3°7.011 9.041758 3.419555 31.526912  
2002-04-11 09:12:14 51°24.283 3°7.013 9.042186 3.42296 31.559583  
2002-04-11 09:13:14 51°24.284 3°7.014 9.082965 3.429372 31.623729  
2002-04-11 09:14:14 51°24.282 3°7.017 9.047707 3.432978 31.662085  
2002-04-11 09:15:14 51°24.277 3°7.023 9.085628 3.434881 31.679387  
2002-04-11 09:16:14 51°24.267 3°7.034 9.050134 3.436985 31.700918  
2002-04-11 09:17:14 51°24.251 3°7.048 9.05042 3.437586 31.707071  
2002-04-11 09:18:14 51°24.23 3°7.067 9.048754 3.438388 31.711639  
2002-04-11 09:19:14 51°24.21 3°7.089 9.090242 3.43999 31.730227  
2002-04-11 09:20:13 51°24.203 3°7.11 9.124763 3.440992 31.739754  
2002-04-11 09:21:14 51°24.205 3°7.127 9.158316 3.437987 31.683568  
2002-04-11 09:22:14 51°24.213 3°7.132 9.154467 3.373776 30.988089  
2002-04-11 09:23:14 51°24.224 3°7.13 9.162212 3.329503 30.522295  
2002-04-11 09:24:14 51°24.229 3°7.137 9.094998 3.312075 30.359884  
2002-04-11 09:25:14 51°24.23 3°7.151 9.052419 3.330104 30.585717  
2002-04-11 09:26:14 51°24.232 3°7.164 9.056892 3.369269 30.996062  
2002-04-11 09:27:14 51°24.237 3°7.176 9.057749 3.376581 31.071373  
2002-04-11 09:28:14 51°24.244 3°7.185 9.056607 3.384294 31.151517  
2002-04-11 09:29:14 51°24.253 3°7.195 9.056607 3.393009 31.236199  
2002-04-11 09:30:14 51°24.258 3°7.21 9.057654 3.403727 31.349257  
2002-04-11 09:31:14 51°24.258 3°7.23 9.064125 3.407834 31.391221  
2002-04-11 09:32:14 51°24.256 3°7.25 9.064934 3.422359 31.536081  
2002-04-11 09:33:14 51°24.257 3°7.262 9.069026 3.427368 31.585848  
2002-04-11 09:34:14 51°24.262 3°7.264 9.063173 3.429973 31.610311  
2002-04-11 09:35:14 51°24.271 3°7.259 9.065695 3.430774 31.617782  
2002-04-11 09:36:14 51°24.281 3°7.257 9.067551 3.431575 31.625253  
2002-04-11 09:37:14 51°24.294 3°7.262 9.102988 3.432176 31.632849  
2002-04-11 09:38:14 51°24.38 3°7.333 9.07188 3.432577 31.635497  
2002-04-11 09:39:14 51°24.514 3°7.367 9.068264 3.432777 31.634647  
2002-04-11 09:40:14 51°24.655 3°7.408 9.058891 3.433078 31.63772  
2002-04-11 09:41:14 51°24.796 3°7.457 9.044709 3.431175 31.621879  
2002-04-11 09:42:14 51°24.934 3°7.509 9.034427 3.430073 31.61858  
2002-04-11 09:43:14 51°25.07 3°7.559 9.034142 3.429372 31.622279  
2002-04-11 09:44:14 51°25.203 3°7.608 9.112735 3.428971 31.621804  
2002-04-11 09:45:14 51°25.335 3°7.658 9.069121 3.427569 31.608903  
2002-04-11 09:46:14 51°25.467 3°7.714 9.037283 3.425966 31.5954  
2002-04-11 09:47:14 51°25.597 3°7.769 9.037902 3.424964 31.584425  
2002-04-11 09:48:14 51°25.726 3°7.82 9.034713 3.424663 31.579177  
2002-04-11 09:49:14 51°25.857 3°7.874 9.036284 3.425265 31.584603  
2002-04-11 09:50:14 51°25.99 3°7.926 9.041329 3.427168 31.606252  
2002-04-11 09:51:14 51°26.122 3°7.981 9.03476 3.430975 31.642307  
2002-04-11 09:52:14 51°26.252 3°8.037 9.033427 3.433078 31.665289  
2002-04-11 09:53:14 51°26.383 3°8.093 9.016811 3.434982 31.685498  
2002-04-11 09:54:14 51°26.516 3°8.149 9.026286 3.431876 31.664603  
2002-04-11 09:55:14 51°26.649 3°8.206 9.008907 3.429973 31.650199  
2002-04-11 09:56:14 51°26.783 3°8.264 8.991808 3.42847 31.640622  
2002-04-11 09:57:14 51°26.915 3°8.319 8.988045 3.440592 31.774266  
2002-04-11 09:58:14 51°27.048 3°8.375 8.979851 3.444799 31.823238  
2002-04-11 09:59:13 51°27.175 3°8.441 8.984186 3.458925 31.971047  
2002-04-11 10:00:14 51°27.301 3°8.531 8.980994 3.466438 32.051834  
2002-04-11 10:01:14 51°27.429 3°8.605 8.980422 3.468442 32.073876  
2002-04-11 10:02:14 51°27.556 3°8.68 8.989617 3.47265 32.119291  
2002-04-11 10:03:14 51°27.686 3°8.757 9.035141 3.483369 32.227918  
2002-04-11 10:04:14 51°27.812 3°8.832 8.997857 3.487176 32.262585  
2002-04-11 10:05:14 51°27.909 3°8.889 8.990284 3.491985 32.306801  
2002-04-11 10:06:14 51°27.959 3°8.913 8.991665 3.496393 32.35284  
2002-04-11 10:07:14 51°27.99 3°8.945 8.994999 3.496493 32.355356  
2002-04-11 10:08:14 51°28.008 3°8.985 8.999905 3.497695 32.364738  
2002-04-11 10:09:14 51°28.006 3°9 9.025001 3.497996 32.367083  
2002-04-11 10:10:14 51°27.992 3°8.997 9.02124 3.498196 32.37286  
2002-04-11 10:11:14 51°27.977 3°8.982 9.021097 3.498597 32.380698  
2002-04-11 10:12:14 51°28 3°8.973 8.999096 3.498196 32.377323  
2002-04-11 10:13:14 51°28.013 3°8.994 9.000096 3.498597 32.374748  
2002-04-11 10:14:14 51°28.012 3°9.018 9.000763 3.498697 32.37206  
2002-04-11 10:15:14 51°28.007 3°9.042 9.05042 3.498898 32.374119  
2002-04-11 10:16:14 51°27.999 3°9.058 9.000096 3.498898 32.368916  
2002-04-11 10:17:14 51°27.991 3°9.058 9.003382 3.499198 32.370517  
2002-04-11 10:18:14 51°27.98 3°9.043 9.041186 3.499098 32.373948  
2002-04-11 10:19:14 51°27.975 3°9.026 9.004859 3.498898 32.370402  
2002-04-11 10:20:14 51°27.974 3°9.012 9.004144 3.498797 32.364171  
2002-04-11 10:21:14 51°27.979 3°9.008 9.004716 3.498597 32.363598  
2002-04-11 10:22:14 51°27.992 3°9.012 9.004954 3.498797 32.364914  
2002-04-11 10:23:14 51°28.007 3°9.015 9.003668 3.498597 32.365084  
2002-04-11 10:24:14 51°28.021 3°9.016 9.007478 3.498597 32.365828  
2002-04-11 10:25:14 51°28.034 3°9.015 9.047564 3.498497 32.363312  
2002-04-11 10:26:14 51°28.043 3°9.009 9.002715 3.498497 32.361826  
2002-04-11 10:27:14 51°28.05 3°9.001 9.079016 3.498296 32.363483  
2002-04-11 10:28:14 51°28.052 3°8.994 9.003239 3.498096 32.358452  
2002-04-11 10:29:14 51°28.05 3°8.985 9.039949 3.497996 32.355937  
2002-04-11 10:30:14 51°28.043 3°8.978 9.00524 3.498096 32.357709  
2002-04-11 10:31:14 51°28.029 3°8.972 9.009288 3.497595 32.35182  
2002-04-11 10:32:14 51°28.012 3°8.967 9.012669 3.497795 32.344225  
2002-04-11 10:33:14 51°27.996 3°8.96 9.017954 3.497695 32.349878  
2002-04-11 10:34:14 51°27.99 3°8.949 9.008288 3.497695 32.344681  
2002-04-11 10:35:14 51°27.994 3°8.948 9.00743 3.497896 32.350451  
2002-04-11 10:36:14 51°28.004 3°8.959 9.00543 3.497996 32.350738  
2002-04-11 10:37:14 51°28.018 3°8.98 9.008621 3.498096 32.353252  
2002-04-11 10:38:14 51°28.033 3°9.004 9.049563 3.498296 32.354568  
2002-04-11 10:39:14 51°28.044 3°9.027 9.017383 3.498296 32.357539  
2002-04-11 10:40:14 51°28.053 3°9.043 9.006097 3.498497 32.357369  
2002-04-11 10:41:14 51°28.062 3°9.059 9.006097 3.498397 32.358568  
2002-04-11 10:42:14 51°28.066 3°9.083 9.002858 3.498597 32.361369  
2002-04-11 10:43:14 51°28.065 3°9.119 9.006668 3.498397 32.360054  
2002-04-11 10:44:14 51°28.058 3°9.165 8.997762 3.498096 32.358452  
2002-04-11 10:45:14 51°28.05 3°9.213 9.013478 3.497896 32.357136  
2002-04-11 10:46:14 51°28.041 3°9.259 9.011431 3.497695 32.352106  
2002-04-11 10:47:14 51°28.019 3°9.309 9.044947 3.497495 32.34782  
2002-04-11 10:48:14 51°27.984 3°9.351 9.010192 3.497695 32.349136  
2002-04-11 10:49:14 51°27.94 3°9.378 9.057654 3.497495 32.347078  
2002-04-11 10:50:14 51°27.894 3°9.383 9.007859 3.497194 32.339536  
2002-04-11 10:51:14 51°27.862 3°9.276 9.020811 3.497495 32.343365  
2002-04-11 10:52:14 51°27.907 3°8.993 9.059652 3.497595 32.339941  
2002-04-11 10:53:14 51°27.957 3°8.67 9.023477 3.497495 32.336685  
2002-04-11 10:54:14 51°28.008 3°8.345 9.064125 3.498396 32.341492  
2002-04-11 10:55:14 51°28.059 3°8.022 9.036188 3.5005 32.361609  
2002-04-11 10:56:14 51°28.113 3°7.7 9.039521 3.502905 32.381099  
2002-04-11 10:57:14 51°28.165 3°7.377 9.133319 3.505009 32.398242  
2002-04-11 10:58:14 51°28.22 3°7.051 9.090718 3.507313 32.412237  
2002-04-11 10:59:14 51°28.275 3°6.726 9.087341 3.51112 32.427528  
2002-04-11 11:00:14 51°28.33 3°6.401 9.113686 3.514426 32.458474  
2002-04-11 11:01:14 51°28.387 3°6.076 9.124763 3.51693 32.48566  
2002-04-11 11:02:14 51°28.442 3°5.752 9.118726 3.520537 32.520438  
2002-04-11 11:03:14 51°28.49 3°5.425 9.069454 3.524645 32.561849  
2002-04-11 11:04:14 51°28.541 3°5.1 9.079349 3.526448 32.582599  
2002-04-11 11:05:14 51°28.592 3°4.773 9.069834 3.52755 32.591672  
2002-04-11 11:06:14 51°28.625 3°4.44 9.087388 3.528953 32.60159  
2002-04-11 11:07:14 51°28.661 3°4.108 9.182258 3.529153 32.59842  
2002-04-11 11:08:14 51°28.671 3°3.879 9.096235 3.530756 32.608898  
2002-04-11 11:09:14 51°28.705 3°3.768 9.119106 3.531357 32.613573  
2002-04-11 11:10:14 51°28.726 3°3.706 9.084344 3.533161 32.640299  
2002-04-11 11:11:14 51°28.733 3°3.695 9.098898 3.534063 32.650303  
2002-04-11 11:12:14 51°28.737 3°3.694 9.114922 3.534363 32.64965  
2002-04-11 11:13:14 51°28.739 3°3.697 9.120295 3.534463 32.641709  
2002-04-11 11:14:14 51°28.737 3°3.702 9.12733 3.534964 32.640872  
2002-04-11 11:15:14 51°28.734 3°3.71 9.132844 3.535465 32.635555  
2002-04-11 11:16:14 51°28.731 3°3.718 9.137502 3.536667 32.644152  
2002-04-11 11:17:14 51°28.73 3°3.719 9.141352 3.537869 32.649761  
2002-04-11 11:18:14 51°28.731 3°3.712 9.147292 3.538571 32.652472  
2002-04-11 11:19:14 51°28.732 3°3.7 9.12367 3.539172 32.654902  
2002-04-11 11:20:14 51°28.731 3°3.687 9.104176 3.540074 32.670123  
2002-04-11 11:21:14 51°28.727 3°3.673 9.099564 3.540775 32.6818  
2002-04-11 11:22:14 51°28.719 3°3.658 9.10722 3.541376 32.70143  
2002-04-11 11:23:14 51°28.705 3°3.646 9.078303 3.541477 32.710692  
2002-04-11 11:24:14 51°28.683 3°3.647 9.085248 3.541276 32.71987  
2002-04-11 11:25:14 51°28.661 3°3.664 9.085248 3.540375 32.718854  
2002-04-11 11:26:14 51°28.643 3°3.69 9.094285 3.539473 32.708096  
2002-04-11 11:27:14 51°28.637 3°3.713 9.100324 3.538972 32.699956  
2002-04-11 11:28:14 51°28.631 3°3.738 9.10779 3.538872 32.692937  
2002-04-11 11:29:14 51°28.626 3°3.765 9.117299 3.539272 32.691063  
2002-04-11 11:30:14 51°28.622 3°3.795 9.16587 3.539673 32.690686  
2002-04-11 11:31:14 51°28.617 3°3.824 9.212647 3.539973 32.676569  
2002-04-11 11:32:14 51°28.612 3°3.853 9.189097 3.540975 32.657712  
2002-04-11 11:33:14 51°28.607 3°3.886 9.183778 3.541776 32.662194  
2002-04-11 11:34:14 51°28.602 3°3.926 9.181213 3.542077 32.657812  
2002-04-11 11:35:14 51°28.611 3°3.998 9.176938 3.542077 32.653337  
2002-04-11 11:36:14 51°28.633 3°4.045 9.123717 3.542378 32.676568  
2002-04-11 11:37:15 51°28.636 3°4.065 9.14848 3.542177 32.686468  
2002-04-11 11:38:14 51°28.636 3°4.082 9.105318 3.541276 32.686938  
2002-04-11 11:39:14 51°28.637 3°4.096 9.140876 3.539973 32.681055  
2002-04-11 11:40:14 51°28.636 3°3.97 9.136076 3.53827 32.673301  
2002-04-11 11:41:14 51°28.655 3°3.766 9.113781 3.537068 32.653491  
2002-04-11 11:42:14 51°28.677 3°3.641 9.109502 3.536868 32.650689  
2002-04-11 11:43:14 51°28.7 3°3.617 9.13774 3.537068 32.657227  
2002-04-11 11:44:14 51°28.71 3°3.626 9.095569 3.537769 32.669656  
2002-04-11 11:45:14 51°28.723 3°3.638 9.102797 3.537469 32.673302  
2002-04-11 11:46:14 51°28.737 3°3.651 9.16492 3.537068 32.670685  
2002-04-11 11:47:14 51°28.748 3°3.666 9.127473 3.537469 32.663581  
2002-04-11 11:48:14 51°28.756 3°3.678 9.161642 3.53807 32.662274  
2002-04-11 11:49:14 51°28.765 3°3.687 9.126427 3.53827 32.66433  
2002-04-11 11:50:14 51°28.775 3°3.696 9.119391 3.539272 32.671618  
2002-04-11 11:51:14 51°28.788 3°3.705 9.119724 3.539873 32.679279  
2002-04-11 11:52:14 51°28.798 3°3.715 9.11207 3.540174 32.681615  
2002-04-11 11:53:14 51°28.806 3°3.726 9.14943 3.539974 32.684046  
2002-04-11 11:54:14 51°28.815 3°3.736 9.117965 3.539873 32.685261  
2002-04-11 11:55:14 51°28.827 3°3.747 9.173043 3.539773 32.684234  
2002-04-11 11:56:14 51°28.87 3°3.693 9.114732 3.539873 32.676289  
2002-04-11 11:57:14 51°28.758 3°3.531 9.131275 3.540675 32.686754  
2002-04-11 11:58:14 51°28.559 3°3.43 9.11012 3.541076 32.687874  
2002-04-11 11:59:14 51°28.367 3°3.308 9.129136 3.537469 32.657602  
2002-04-11 12:00:14 51°28.173 3°3.185 9.135221 3.535264 32.629767  
2002-04-11 12:01:14 51°27.981 3°3.065 9.166725 3.535064 32.61652  
2002-04-11 12:02:14 51°27.79 3°2.949 9.184252 3.531557 32.582064  
2002-04-11 12:03:14 51°27.596 3°2.832 9.133985 3.528552 32.549767  
2002-04-11 12:04:14 51°27.408 3°2.715 9.13004 3.526347 32.527178  
2002-04-11 12:05:14 51°27.22 3°2.603 9.139593 3.524243 32.507105  
2002-04-11 12:06:14 51°27.033 3°2.477 9.188242 3.522741 32.488733  
2002-04-11 12:07:14 51°26.843 3°2.352 9.145629 3.522039 32.475608  
2002-04-11 12:08:14 51°26.655 3°2.218 9.166487 3.521338 32.465455  
2002-04-11 12:09:14 51°26.469 3°2.089 9.127901 3.521338 32.474363  
2002-04-11 12:10:14 51°26.283 3°1.969 9.134317 3.519835 32.461936  
2002-04-11 12:11:14 51°26.094 3°1.851 9.141161 3.519034 32.451498  
2002-04-11 12:12:14 51°25.902 3°1.733 9.139355 3.518533 32.442658  
2002-04-11 12:13:14 51°25.712 3°1.618 9.179455 3.517531 32.428689  
2002-04-11 12:14:14 51°25.52 3°1.501 9.131988 3.51693 32.421051  
2002-04-11 12:15:14 51°25.328 3°1.374 9.127425 3.51733 32.430344  
2002-04-11 12:16:14 51°25.133 3°1.253 9.138738 3.515627 32.414382  
2002-04-11 12:17:14 51°24.934 3°1.127 9.176796 3.515627 32.412159  
2002-04-11 12:18:14 51°24.743 3°0.987 9.139973 3.515026 32.406003  
2002-04-11 12:19:14 51°24.545 3°0.868 9.148955 3.514024 32.39204  
2002-04-11 12:20:14 51°24.351 3°0.744 9.149193 3.513924 32.386572  
2002-04-11 12:21:14 51°24.16 3°0.627 9.173091 3.512221 32.372096  
2002-04-11 12:22:14 51°23.974 3°0.507 9.298753 3.511419 32.346886  
2002-04-11 12:23:14 51°23.783 3°0.39 9.428101 3.496591 32.124052  
2002-04-11 12:24:14 51°23.598 3°0.257 9.29387 3.46363 31.751856  
2002-04-11 12:25:14 51°23.419 3°0.124 9.284908 3.445798 31.567602  
2002-04-11 12:26:14 51°23.318 3°0.097 9.322454 3.43568 31.467622  
2002-04-11 12:27:14 51°23.277 3°0.039 9.333022 3.433576 31.444812  
2002-04-11 12:28:14 51°23.248 3°0.008 9.316482 3.430371 31.411525  
2002-04-11 12:29:14 51°23.244 3°0.006 9.284481 3.430571 31.416419  
2002-04-11 12:30:14 51°23.245 2°59.997 9.287611 3.430671 31.418867  
2002-04-11 12:31:14 51°23.246 2°59.987 9.278933 3.430872 31.422332  
2002-04-11 12:32:14 51°23.249 2°59.976 9.284007 3.431573 31.428028  
2002-04-11 12:33:14 51°23.254 2°59.97 9.281352 3.432174 31.429846  
2002-04-11 12:34:14 51°23.262 2°59.97 9.28818 3.432675 31.439226  
2002-04-11 12:35:14 51°23.271 2°59.977 9.28799 3.432875 31.440547  
2002-04-11 12:36:14 51°23.282 2°59.983 9.280024 3.432875 31.439117  
2002-04-11 12:37:14 51°23.295 2°59.99 9.285051 3.433075 31.443299  
2002-04-11 12:38:14 51°23.306 2°59.997 9.324966 3.433676 31.442254  
2002-04-11 12:39:14 51°23.319 2°59.991 9.329515 3.433977 31.450315  
2002-04-11 12:40:14 51°23.316 2°59.968 9.248764 3.434478 31.456836  
2002-04-11 12:41:14 51°23.301 2°59.966 9.277463 3.43548 31.483492  
2002-04-11 12:42:14 51°23.294 2°59.956 9.331174 3.43558 31.479495  
2002-04-11 12:43:15 51°23.299 2°59.943 9.283865 3.436481 31.481497  
2002-04-11 12:44:16 51°23.301 2°59.935 9.285051 3.437283 31.484628  
2002-04-11 12:45:15 51°23.302 2°59.926 9.28671 3.437784 31.490436  
2002-04-11 12:46:14 51°23.295 2°59.921 9.273194 3.438285 31.494094  
2002-04-11 12:47:15 51°23.281 2°59.917 9.330605 3.439186 31.504692  
2002-04-11 12:48:15 51°23.271 2°59.906 9.291926 3.439487 31.510615  
2002-04-11 12:49:15 51°23.268 2°59.896 9.328899 3.439787 31.507218  
2002-04-11 12:50:15 51°23.267 2°59.89 9.287279 3.439887 31.503219  
2002-04-11 12:51:15 51°23.268 2°59.886 9.328046 3.440088 31.506689  
2002-04-11 12:52:14 51°23.27 2°59.885 9.296478 3.440488 31.509328  
2002-04-11 12:53:15 51°23.273 2°59.887 9.328473 3.440789 31.513099  
2002-04-11 12:54:14 51°23.276 2°59.89 9.262664 3.44139 31.51634  
2002-04-11 12:55:14 51°23.281 2°59.891 9.2731 3.442392 31.540151  
2002-04-11 12:56:15 51°23.286 2°59.892 9.278743 3.442693 31.550386  
2002-04-11 12:57:15 51°23.291 2°59.894 9.278032 3.442192 31.543856  
2002-04-11 12:58:15 51°23.295 2°59.897 9.274617 3.44129 31.533252  
2002-04-11 12:59:15 51°23.3 2°59.898 9.268214 3.440689 31.526423  
2002-04-11 13:00:15 51°23.307 2°59.898 9.269068 3.440388 31.526954  
2002-04-11 13:01:15 51°23.312 2°59.896 9.30558 3.439988 31.523597  
2002-04-11 13:02:15 51°23.317 2°59.894 9.263518 3.439487 31.517786  
2002-04-11 13:03:15 51°23.323 2°59.893 9.264088 3.439086 31.518016  
2002-04-11 13:04:15 51°23.33 2°59.893 9.30705 3.438485 31.514055  
2002-04-11 13:05:15 51°23.338 2°59.892 9.265368 3.437984 31.511113  
2002-04-11 13:06:15 51°23.349 2°59.892 9.302025 3.437283 31.502547  
2002-04-11 13:07:15 51°23.364 2°59.896 9.262664 3.436482 31.494397  
2002-04-11 13:08:15 51°23.38 2°59.899 9.263708 3.436081 31.491038  
2002-04-11 13:09:15 51°23.396 2°59.904 9.263281 3.43548 31.482776  
2002-04-11 13:10:15 51°23.41 2°59.916 9.265368 3.434578 31.474325  
2002-04-11 13:11:15 51°23.422 2°59.93 9.265985 3.434178 31.468817  
2002-04-11 13:12:15 51°23.438 2°59.939 9.306386 3.433576 31.460557  
2002-04-11 13:13:15 51°23.455 2°59.946 9.268641 3.433276 31.460366  
2002-04-11 13:14:15 51°23.474 2°59.952 9.267123 3.432875 31.455576  
2002-04-11 13:15:15 51°23.493 2°59.953 9.268499 3.432775 31.450262  
2002-04-11 13:16:15 51°23.498 2°59.905 9.342356 3.432875 31.454144  
2002-04-11 13:17:15 51°23.376 2°59.872 9.308235 3.432775 31.451694  
2002-04-11 13:18:15 51°23.193 2°59.773 9.284339 3.433076 31.456181  
2002-04-11 13:19:15 51°23.01 2°59.662 9.292874 3.434678 31.465315  
2002-04-11 13:20:15 51°22.819 2°59.554 9.26793 3.435179 31.458237  
2002-04-11 13:21:16 51°22.63 2°59.427 9.243924 3.433076 31.45117  
2002-04-11 13:22:15 51°22.433 2°59.327 9.201633 3.431974 31.460017  
2002-04-11 13:23:15 51°22.235 2°59.214 9.216967 3.430071 31.468609  
2002-04-11 13:24:15 51°22.038 2°59.109 9.190521 3.426565 31.446542  
2002-04-11 13:25:15 51°21.846 2°58.983 9.180453 3.423159 31.420463  
2002-04-11 13:26:15 51°21.654 2°58.863 9.201823 3.420855 31.397717  
2002-04-11 13:27:15 51°21.459 2°58.746 9.215258 3.419853 31.381074  
2002-04-11 13:28:15 51°21.261 2°58.636 9.245016 3.418751 31.360557  
2002-04-11 13:29:15 51°21.065 2°58.531 9.271961 3.419853 31.35247  
2002-04-11 13:30:16 51°20.871 2°58.419 9.298753 3.421956 31.358862  
2002-04-11 13:31:15 51°20.675 2°58.311 9.314586 3.422257 31.339793  
2002-04-11 13:32:15 51°20.478 2°58.199 9.346572 3.422256 31.321263  
2002-04-11 13:33:15 51°20.281 2°58.085 9.413621 3.419251 31.268709  
2002-04-11 13:34:15 51°20.09 2°57.975 9.4131 3.413841 31.172758  
2002-04-11 13:35:15 51°19.902 2°57.849 9.346714 3.397613 31.000003  
2002-04-11 13:36:16 51°19.708 2°57.726 9.350031 3.37798 30.806312  
2002-04-11 13:37:16 51°19.516 2°57.601 9.369214 3.365459 30.692966  
2002-04-11 13:38:16 51°19.322 2°57.478 9.426019 3.355643 30.586801  
2002-04-11 13:39:15 51°19.134 2°57.362 9.441348 3.349332 30.51613  
2002-04-11 13:40:15 51°18.94 2°57.245 9.429426 3.342621 30.429048  
2002-04-11 13:41:15 51°18.75 2°57.127 9.408131 3.336912 30.354946  
2002-04-11 13:42:15 51°18.559 2°57.01 9.379632 3.33 30.290775  
2002-04-11 13:43:15 51°18.368 2°56.888 9.35131 3.325193 30.258085  
2002-04-11 13:44:16 51°18.174 2°56.789 9.341645 3.320986 30.228691  
2002-04-11 13:45:15 51°17.988 2°56.695 9.346335 3.31698 30.204042  
2002-04-11 13:46:15 51°17.792 2°56.598 9.381194 3.311672 30.155283  
2002-04-11 13:47:15 51°17.603 2°56.507 9.38162 3.308367 30.111694  
2002-04-11 13:48:15 51°17.447 2°56.436 9.332027 3.306964 30.096191  
2002-04-11 13:49:16 51°17.25 2°56.338 9.358083 3.306764 30.113297  
2002-04-11 13:50:15 51°17.051 2°56.241 9.390805 3.301155 30.055357  
2002-04-11 13:51:15 51°16.851 2°56.138 9.36784 3.298952 30.031773  
2002-04-11 13:52:16 51°16.645 2°56.038 9.364478 3.296148 29.996008  
2002-04-11 13:53:16 51°16.448 2°55.936 9.363199 3.294945 29.966217  
2002-04-11 13:54:16 51°16.252 2°55.837 9.383514 3.289237 29.916857  
2002-04-11 13:55:15 51°16.055 2°55.733 9.396723 3.283127 29.846523  
2002-04-11 13:56:16 51°15.848 2°55.639 9.411869 3.27832 29.786649  
2002-04-11 13:57:15 51°15.651 2°55.549 9.410923 3.275115 29.742948  
2002-04-11 13:58:15 51°15.449 2°55.47 9.399516 3.27191 29.706011  
2002-04-11 13:59:15 51°15.245 2°55.401 9.405433 3.267303 29.659701  
2002-04-11 14:00:15 51°15.051 2°55.292 9.461213 3.264699 29.637557  
2002-04-11 14:01:16 51°14.887 2°55.258 9.463861 3.261394 29.599648  
2002-04-11 14:02:15 51°14.809 2°55.227 9.457666 3.260092 29.573842  
2002-04-11 14:03:16 51°14.768 2°55.182 9.478803 3.257988 29.534672  
2002-04-11 14:04:15 51°14.74 2°55.142 9.517371 3.255184 29.493189  
2002-04-11 14:05:15 51°14.724 2°55.106 9.541275 3.254282 29.476819  
2002-04-11 14:06:15 51°14.719 2°55.084 9.47346 3.252981 29.463099  
2002-04-11 14:07:15 51°14.716 2°55.098 9.531686 3.252079 29.456724  
2002-04-11 14:08:15 51°14.707 2°55.08 9.491 3.250677 29.444663  
2002-04-11 14:09:15 51°14.697 2°55.066 9.475115 3.249776 29.428973  
2002-04-11 14:10:15 51°14.69 2°55.054 9.503478 3.249475 29.421972  
2002-04-11 14:11:15 51°14.685 2°55.041 9.49705 3.248975 29.420277  
2002-04-11 14:12:15 51°14.676 2°55.018 9.461355 3.247773 29.414878  
2002-04-11 14:13:15 51°14.664 2°54.994 9.451092 3.246872 29.408501  
2002-04-11 14:14:15 51°14.606 2°54.975 9.457004 3.24547 29.397767  
2002-04-11 14:15:15 51°14.453 2°55.022 9.512457 3.243867 29.388346  
2002-04-11 14:16:15 51°14.315 2°55.169 9.498704 3.242165 29.352026  
2002-04-11 14:17:15 51°14.223 2°55.32 9.925467 0.09903 0.700092  
2002-04-11 14:18:15 51°14.137 2°55.398 10.041625 0.068531 0.477002  
2002-04-11 14:19:15 51°14.047 2°55.466 10.337698 0.057775 0.399256  
2002-04-11 14:20:15 51°13.954 2°55.536 10.526584 0.052842 0.363656  
2002-04-11 14:21:15 51°13.867 2°55.6 10.846502 0.049488 0.339467  
2002-04-11 14:22:15 51°13.799 2°55.658 10.98613 0.046725 0.319563  
2002-04-11 14:23:15 51°13.749 2°55.728 11.154362 0.044752 0.305314  
2002-04-11 14:24:15 51°13.718 2°55.792 11.440604 0.043371 0.295288  
2002-04-11 14:25:15 51°13.706 2°55.841 11.588914 0.043075 0.292905  
2002-04-11 14:26:15 51°13.693 2°55.886 11.688319 0.042977 0.291911  
2002-04-11 14:27:15 51°13.688 2°55.895 11.952777 0.041793 0.283307  
2002-04-11 14:28:20 51°13.685 2°55.904 12.110074 0.0413 0.279533  
2002-04-11 14:29:20 51°13.686 2°55.908 12.238354 0.041201 0.278517  
2002-04-11 14:30:20 51°13.686 2°55.908 12.478953 0.040708 0.274773  
2002-04-11 14:31:20 51°13.688 2°55.905 12.653528 0.039721 0.267611  
2002-04-11 14:32:20 51°13.688 2°55.906 12.829983 0.039031 0.26252  
2002-04-11 14:33:20 51°13.688 2°55.906 12.998443 0.03834 0.257435  
2002-04-11 14:34:20 51°13.688 2°55.906 13.159549 0.037847 0.253734